»·PEaware :: N106MR CYVR-KSEA

N106MR :: CYVR-KSEA

FLIGHT INFORMATION

Flight Status: Arrived
Operator: Privately registered:
United States
More flights under this callsign
Pilot: Michael R. (16974)
Aircraft: MITSUBISHI MU-2 MARQUISE
(MU2)
More flights by this aircraft type
Origin: CYVR Vancouver Intl
Canada
Destination: KSEA Seattle-Tacoma Intl
United States
More flights between these airports :: More routes between these airports
Route: JAWBN JAWBN5
File this flight plan on PilotEdge
Remarks:
Altitude:
(Current/Filed)
13,000ft
Speed:
(Current/Filed)
260kts
Departed: 28-Dec-17 04:35 PM
Arrived: 28-Dec-17 05:08 PM
Distance/Time
Traveled:
111nm/0:33
Distance/Time
To Go:
Arrived

Flight Plot

Page will automatically refresh every two minutes.

Flight plan parsing failed; only flown route is shown


Map Options




Map Legend


Flown Route
Filed Route
Departure Airport
Arrival Airport
Navaid (VOR, NDB)
Fix

Horizontal Profiles

Position Reports

Time Latitude Longitude Heading Altitude Ground
Speed
28-Dec-17 16:27 49.183650 -123.177609 136 10ft 0kts
28-Dec-17 16:28 49.183650 -123.177609 136 10ft 0kts
28-Dec-17 16:29 49.183650 -123.177609 136 10ft 0kts
28-Dec-17 16:30 49.183650 -123.177609 136 10ft 0kts
28-Dec-17 16:31 49.183650 -123.177609 136 10ft 0kts
28-Dec-17 16:32 49.183650 -123.177609 136 10ft 0kts
28-Dec-17 16:33 49.183534 -123.177157 60 10ft 11kts
28-Dec-17 16:34 49.184656 -123.177466 280 10ft 18kts
28-Dec-17 16:35 49.185646 -123.186320 279 13ft 25kts
28-Dec-17 16:36 49.186648 -123.195101 278 10ft 12kts
28-Dec-17 16:37 49.187601 -123.203472 278 15ft 23kts
28-Dec-17 16:38 49.189471 -123.202895 98 17ft 0kts
28-Dec-17 16:39 49.189471 -123.202894 98 17ft 0kts
28-Dec-17 16:40 49.189471 -123.202894 98 17ft 0kts
28-Dec-17 16:41 49.183182 -123.162598 105 971ft 124kts
28-Dec-17 16:42 49.159682 -123.119431 192 2442ft 178kts
28-Dec-17 16:43 49.111832 -123.142772 191 4176ft 180kts
28-Dec-17 16:44 49.062601 -123.141774 179 5845ft 180kts
28-Dec-17 16:45 49.011050 -123.128784 178 7213ft 205kts
28-Dec-17 16:46 48.947852 -123.110444 175 7518ft 257kts
28-Dec-17 16:47 48.877671 -123.089432 175 7462ft 255kts
28-Dec-17 16:48 48.812767 -123.070048 177 8142ft 210kts
28-Dec-17 16:49 48.757537 -123.054035 178 9384ft 207kts
28-Dec-17 16:50 48.709746 -123.040011 178 10372ft 215kts
28-Dec-17 16:51 48.640826 -123.019715 179 11877ft 217kts
28-Dec-17 16:52 48.582257 -123.002696 180 13003ft 229kts
28-Dec-17 16:53 48.526534 -122.986394 178 13000ft 254kts
28-Dec-17 16:54 48.455827 -122.965705 178 12998ft 263kts
28-Dec-17 16:55 48.371361 -122.941131 178 12997ft 267kts
28-Dec-17 16:56 48.311127 -122.923666 178 13024ft 267kts
28-Dec-17 16:57 48.225690 -122.898896 179 12986ft 270kts
28-Dec-17 16:58 48.163880 -122.881155 178 12112ft 275kts
28-Dec-17 16:59 48.089752 -122.859969 176 10053ft 270kts
28-Dec-17 17:00 48.025731 -122.837585 159 9941ft 213kts
28-Dec-17 17:01 47.980780 -122.796920 160 9902ft 166kts
28-Dec-17 17:02 47.937944 -122.758809 158 9961ft 205kts
28-Dec-17 17:03 47.886111 -122.711765 155 9079ft 236kts
28-Dec-17 17:04 47.834800 -122.653879 119 7773ft 246kts
28-Dec-17 17:05 47.800035 -122.569598 132 6610ft 234kts
28-Dec-17 17:06 47.764767 -122.496067 132 5435ft 229kts
28-Dec-17 17:07 47.734233 -122.431384 131 4274ft 215kts
28-Dec-17 17:08 47.702057 -122.363021 132 4011ft 201kts
28-Dec-17 17:09 47.664103 -122.311171 179 4009ft 183kts
28-Dec-17 17:10 47.610391 -122.309836 182 3269ft 207kts
28-Dec-17 17:11 47.557361 -122.310202 181 2228ft 179kts
28-Dec-17 17:12 47.510313 -122.310615 180 1330ft 150kts
28-Dec-17 17:13 47.474007 -122.310900 178 629ft 104kts
28-Dec-17 17:14 47.455037 -122.310182 92 416ft 11kts
28-Dec-17 17:15 47.455035 -122.310063 92 417ft 0kts
28-Dec-17 17:16 47.455751 -122.307466 94 426ft 14kts
28-Dec-17 17:17 47.455548 -122.306795 131 428ft 0kts
28-Dec-17 17:18 47.451518 -122.306240 180 412ft 19kts
28-Dec-17 17:19 47.446348 -122.306303 181 391ft 13kts
28-Dec-17 17:20 47.440121 -122.306375 180 369ft 17kts
28-Dec-17 17:21 47.435820 -122.304474 88 351ft 9kts
28-Dec-17 17:22 47.435823 -122.304326 89 351ft 0kts
28-Dec-17 17:23 47.435823 -122.304326 89 351ft 0kts
28-Dec-17 17:24 47.435823 -122.304326 89 351ft 0kts
28-Dec-17 17:25 47.435823 -122.304326 89 351ft 0kts
28-Dec-17 17:26 47.435823 -122.304326 89 351ft 0kts
28-Dec-17 17:27 47.435823 -122.304326 89 351ft 0kts
28-Dec-17 17:28 47.435823 -122.304326 89 351ft 0kts

Navigation Log

Ident Type
Flight plan parsing failed, navigation log unavailable